Používaním stránok prevádzkovaných PROFIPILOT, s.r.o. súhlasíte s používaním cookies, ktoré nám pomáhajú zabezpečiť lepšie služby.OK

Briefing

MAPA | METAR | TAF | METEO SITUÁCIA
Sliač
LZSL 301530Z 22008KT 9999 FEW060 29/14 Q1015
Bratislava
LZIB 301530Z 16008KT 140V200 CAVOK 31/16 Q1013 NOSIG
Košice
LZKZ 301530Z 20004KT 160V240 CAVOK 30/13 Q1015 NOSIG
Lučenec
LZLU 141110Z AUTO 08009KT //// ////// 02/01 Q0994
Piešťany
LZPP 301530Z 18007KT 130V210 CAVOK 30/15 Q1013
Poprad
LZTT 301530Z 18005KT 150V210 9999 VCSH FEW053TCU SCT060 25/15 Q1017 TEMPO TS
Žilina
LZZI 301530Z 21008KT 170V240 CAVOK 29/13 Q1014
MAPA | METAR | TAF | METEO SITUÁCIA

Predpoveď na dnes

Slnečno. V horských oblastiach pri miestami zväčšenej oblačnosti ojedinele prehánky alebo búrky. Najvyššia denná teplota 29 až 33, na Kysuciach, Orave, v Liptove a na Spiši okolo 27 st. Teplota na horách vo výške 1500 m okolo 19 st. Slabý premenlivý, na západnom Slovensku juhovýchodný až južný vietor 2 až 6 m/s (5 až 20 km/h). Predpokladané množstvo zrážok: ojedinele do 2 mm, pri búrkach okolo 10 mm

SHMÚ, OMPaV, MM 30.6.2016 11:28 LSEČ

MAPA | METAR | TAF | METEO SITUÁCIA

TAF - Letisková predpoveď

30.06.2016 - 14:00 UTC

TAF LZSL 301400Z 3015/3024 21008KT 9999 FEW045
     TEMPO 3015/3018 FEW055CB SCT080
     PROB30 TEMPO 3015/3017 -TSRA SCT040CB SCT060
     BECMG 3019/3021 VRB02KT CAVOK=
 TAF LZPP 301400Z 3015/3024 17010KT CAVOK
     TEMPO 3015/3018 23010KT 9999 FEW050CB SCT100
     BECMG 3017/3019 15004KT=
 TAF LZZI 301400Z 3015/3024 23008KT CAVOK
     TEMPO 3015/3018 9999 FEW050CB SCT080
     PROB40 TEMPO 3015/3017 25020KT 9999 -TSRA SCT045CB SCT060
     BECMG 3017/3019 VRB02KT=
 

30.06.2016 - 14:00 UTC

TAF LZSL 301400Z 3015/3024 21008KT 9999 FEW045
     TEMPO 3015/3018 FEW055CB SCT080
     PROB30 TEMPO 3015/3017 -TSRA SCT040CB SCT060
     BECMG 3019/3021 VRB02KT CAVOK=
 TAF LZPP 301400Z 3015/3024 17010KT CAVOK
     TEMPO 3015/3018 23010KT 9999 FEW050CB SCT100
     BECMG 3017/3019 15004KT=
 TAF LZZI 301400Z 3015/3024 23008KT CAVOK
     TEMPO 3015/3018 9999 FEW050CB SCT080
     PROB40 TEMPO 3015/3017 25020KT 9999 -TSRA SCT045CB SCT060
     BECMG 3017/3019 VRB02KT=
 

30.06.2016 - 11:00 UTC

TAF LZSL 301100Z 3012/3021 19006KT 9999 FEW045
     TEMPO 3012/3018 FEW055CB SCT080
     PROB30 TEMPO 3012/3017 -TSRA SCT040CB SCT060
     BECMG 3019/3021 VRB02KT CAVOK=
 TAF LZPP 301100Z 3012/3021 17010KT CAVOK
     TEMPO 3013/3018 23010KT 9999 FEW050CB SCT100
     BECMG 3017/3019 15004KT=
 TAF LZZI 301100Z 3012/3021 23006KT 9999 FEW050
     TEMPO 3012/3018 FEW050CB SCT080
     PROB40 TEMPO 3012/3017 25015KT -TSRA SCT045CB SCT060
     BECMG 3017/3019 VRB02KT=
 

30.06.2016 - 11:00 UTC

TAF LZIB 301100Z 3012/0112 16014KT CAVOK
     PROB30 TEMPO 3014/3019 9999 -TSRA SCT050CB SCT060
     BECMG 3018/3020 24005KT
     BECMG 3023/0101 31010KT 9999 SCT045 BKN070
     TEMPO 0105/0112 -SHRA SCT045TCU BKN070=
 TAF LZKZ 301100Z 3012/0112 23008KT CAVOK
     BECMG 3017/3019 VRB02KT=
 TAF LZTT 301100Z 3012/0112 VRB02KT 9999 SCT060
     TEMPO 3012/3018 24010KT FEW050CB SCT060
     PROB30 TEMPO 3012/3017 -TSRA SCT050CB SCT055
     BECMG 3017/3019 27004KT
     TEMPO 0110/0112 12008KT -TSRA SCT040CB BKN070=
 

30.06.2016 - 11:00 UTC

TAF LZSL 301100Z 3012/3021 19006KT 9999 FEW045
     TEMPO 3012/3018 FEW055CB SCT080
     PROB30 TEMPO 3012/3017 -TSRA SCT040CB SCT060
     BECMG 3019/3021 VRB02KT CAVOK=
 TAF LZPP 301100Z 3012/3021 17010KT CAVOK
     TEMPO 3013/3018 23010KT 9999 FEW050CB SCT100
     BECMG 3017/3019 15004KT=
 TAF LZZI 301100Z 3012/3021 23006KT 9999 FEW050
     TEMPO 3012/3018 FEW050CB SCT080
     PROB40 TEMPO 3012/3017 25015KT -TSRA SCT045CB SCT060
     BECMG 3017/3019 VRB02KT=
 

30.06.2016 - 08:00 UTC

TAF LZSL 300800Z 3009/3018 19006KT 9999 FEW045
     TEMPO 3011/3017 FEW055CB SCT080
     PROB30 TEMPO 3012/3017 -TSRA SCT040CB SCT060=
 TAF LZPP 300800Z 3009/3018 17010KT CAVOK
     TEMPO 3013/3018 9999 FEW050CB SCT100=
 TAF LZZI 300800Z 3009/3018 20006KT 9999 FEW045
     TEMPO 3011/3018 FEW045CB SCT080
     PROB40 TEMPO 3011/3017 25015KT -TSRA SCT045CB SCT060=
 

30.06.2016 - 08:00 UTC

TAF LZSL 300800Z 3009/3018 19006KT 9999 FEW045
     TEMPO 3011/3017 FEW055CB SCT080
     PROB30 TEMPO 3012/3017 -TSRA SCT040CB SCT060=
 TAF LZPP 300800Z 3009/3018 17010KT CAVOK
     TEMPO 3013/3018 9999 FEW050CB SCT100=
 TAF LZZI 300800Z 3009/3018 20006KT 9999 FEW045
     TEMPO 3011/3018 FEW045CB SCT080
     PROB40 TEMPO 3011/3017 25015KT -TSRA SCT045CB SCT060=
 

30.06.2016 - 05:00 UTC

TAF LZSL 300500Z 3006/3015 VRB02KT CAVOK
     BECMG 3008/3010 20005KT
     TEMPO 3010/3015 9999 -SHRA SCT055TCU SCT060=
 TAF LZPP 300500Z 3006/3015 03003KT CAVOK
     BECMG 3007/3009 17010KT=
 TAF LZZI 300500Z 3006/3015 VRB02KT CAVOK
     BECMG 3007/3009 20005KT 9999 FEW055
     PROB30 TEMPO 3010/3014 -TSRA SCT050CB BKN055=
 

30.06.2016 - 05:00 UTC

TAF LZSL 300500Z 3006/3015 VRB02KT CAVOK
     BECMG 3008/3010 20005KT
     TEMPO 3010/3015 9999 -SHRA SCT055TCU SCT060=
 TAF LZPP 300500Z 3006/3015 03003KT CAVOK
     BECMG 3007/3009 17010KT=
 TAF LZZI 300500Z 3006/3015 VRB02KT CAVOK
     BECMG 3007/3009 20005KT 9999 FEW055
     PROB30 TEMPO 3010/3014 -TSRA SCT050CB BKN055=
 

30.06.2016 - 05:00 UTC

TAF LZIB 300500Z 3006/0106 02003KT CAVOK
     BECMG 3007/3009 16010KT
     PROB30 TEMPO 3018/0106 6000 TSRA SCT040CB BKN060
     BECMG 3022/3024 31008KT=
 TAF LZKZ 300500Z 3006/0106 VRB02KT CAVOK
     BECMG 3009/3011 18006KT
     BECMG 3016/3018 VRB02KT=
 TAF LZTT 300500Z 3006/0106 VRB02KT CAVOK
     BECMG 3007/3009 12004KT 9999 FEW060
     BECMG 3012/3014 25005KT
     PROB30 TEMPO 3012/3016 -TSRA SCT050CB SCT055=
 

30.06.2016 - 02:00 UTC

TAF LZSL 300200Z 3003/3012 VRB02KT CAVOK
     BECMG 3008/3010 20005KT=
 TAF LZZI 300200Z 3003/3012 VRB02KT CAVOK
     BECMG 3008/3010 20005KT 9999 FEW055=
 

30.06.2016 - 02:00 UTC

TAF LZSL 300200Z 3003/3012 VRB02KT CAVOK
     BECMG 3008/3010 20005KT=
 TAF LZZI 300200Z 3003/3012 VRB02KT CAVOK
     BECMG 3008/3010 20005KT 9999 FEW055=
 
MAPA | METAR | TAF | METEO SITUÁCIA

METAR - Letisková meteo správa

Letisková meteorologická správa METAR

Meteorologické informácie z ďalších profesionálnych meteorologických staníc SHMÚ zobrazené v tvare zodpovedajúcom pravidlám kódovania správ METAR sú uvedené v položke „METSYN Informácie o správe METAR

30.06.2016 - 15:30 UTC

METAR LZIB 301530Z 16008KT 140V200 CAVOK 31/16 Q1013 NOSIG=
 METAR LZKZ 301530Z 20004KT 160V240 CAVOK 30/13 Q1015 NOSIG=
 METAR LZPP 301530Z 18007KT 130V210 CAVOK 30/15 Q1013=
 METAR LZSL 301530Z 22008KT 9999 FEW060 29/14 Q1015=
 METAR LZTT 301530Z 18005KT 150V210 9999 VCSH FEW053TCU SCT060 25/15
 Q1017 TEMPO TS=
 METAR LZZI 301530Z 21008KT 170V240 CAVOK 29/13 Q1014=
 

30.06.2016 - 15:00 UTC

METAR LZIB 301500Z 17009KT 130V210 CAVOK 30/15 Q1013 NOSIG=
 METAR LZKZ 301500Z 20005KT 160V220 CAVOK 30/14 Q1015 NOSIG=
 METAR LZPP 301500Z 16008KT 130V200 CAVOK 31/15 Q1014=
 METAR LZSL 301500Z 22010KT 9999 FEW060 29/15 Q1015=
 METAR LZTT 301500Z 18006KT 130V220 9999 FEW050 SCT067 26/14 Q1017
 TEMPO TS=
 METAR LZZI 301500Z 22009KT CAVOK 30/14 Q1014=
 

30.06.2016 - 15:00 UTC

METAR LZMC 301500Z 17010KT CAVOK 31/12 Q1014=
 METAR LZPW 301500Z 24002KT CAVOK 31/11 Q1015=
 
načítavam...